Time;durP1;ratioP1;P1;durP2;ratioP2;P2;SDS_P1;SDS_P2;PMS_P1;PMS_P2;Temp;Humidity;BMP_temperature;BMP_pressure;BME280_temperature;BME280_humidity;BME280_pressure;Samples;Min_cycle;Max_cycle;Signal;HPM_P1;HPM_P2
2021/09/16 00:01:20;;;;;;;;;;;22.10;71.80;;;;;;5019854;28;19920;-69
2021/09/16 00:03:45;;;;;;;;;;;22.10;71.70;;;;;;5023313;28;19963;-70
2021/09/16 00:06:11;;;;;;;;;;;22.10;71.90;;;;;;5023650;28;20315;-68
2021/09/16 00:08:36;;;;;;;;;;;22.10;71.50;;;;;;5022105;28;19917;-69
2021/09/16 00:11:02;;;;;;;;;;;22.10;71.80;;;;;;5006772;28;20044;-69
2021/09/16 00:13:27;;;;;;;;;;;22.10;72.00;;;;;;5023217;28;19921;-69
2021/09/16 00:15:53;;;;;;;;;;;22.10;71.70;;;;;;5021568;28;19955;-68
2021/09/16 00:18:19;;;;;;;;;;;22.10;71.80;;;;;;5001990;28;20644;-69
2021/09/16 00:20:45;;;;;;;;;;;22.10;71.70;;;;;;4985769;28;20342;-68
2021/09/16 00:23:10;;;;;;;;;;;22.10;71.40;;;;;;5002294;28;19975;-70
2021/09/16 00:25:36;;;;;;;;;;;22.10;71.40;;;;;;5002229;28;20253;-71
2021/09/16 00:28:01;;;;;;;;;;;22.10;71.70;;;;;;4987248;28;19964;-71
2021/09/16 00:30:27;;;;;;;;;;;22.10;71.60;;;;;;5003988;28;20307;-70
2021/09/16 00:32:52;;;;;;;;;;;22.10;71.70;;;;;;5018651;28;19921;-71
2021/09/16 00:35:17;;;;;;;;;;;22.10;71.70;;;;;;4986290;28;19925;-70
2021/09/16 00:37:43;;;;;;;;;;;22.00;71.80;;;;;;5003031;28;19914;-71
2021/09/16 00:40:09;;;;;;;;;;;22.00;71.70;;;;;;5018917;28;19999;-71
2021/09/16 00:42:34;;;;;;;;;;;22.10;71.60;;;;;;4986659;28;19921;-71
2021/09/16 00:44:59;;;;;;;;;;;22.10;71.70;;;;;;4986329;28;19941;-70
2021/09/16 00:47:25;;;;;;;;;;;22.10;71.60;;;;;;4986324;28;19926;-71
2021/09/16 00:49:50;;;;;;;;;;;22.10;71.70;;;;;;5002424;28;19940;-70
2021/09/16 00:52:16;;;;;;;;;;;22.10;71.90;;;;;;4986232;28;19913;-71
2021/09/16 00:54:44;;;;;;;;;;;22.10;71.70;;;;;;4986353;28;19933;-70
2021/09/16 00:57:10;;;;;;;;;;;22.00;71.90;;;;;;5001854;28;19913;-70
2021/09/16 00:59:36;;;;;;;;;;;22.00;71.90;;;;;;5022220;28;20276;-70
2021/09/16 01:02:01;;;;;;;;;;;22.00;72.10;;;;;;5021384;28;19917;-70
2021/09/16 01:04:29;;;;;;;;;;;22.00;72.10;;;;;;5024010;28;19917;-70
2021/09/16 01:06:54;;;;;;;;;;;22.00;72.00;;;;;;5005359;28;19921;-71
2021/09/16 01:09:20;;;;;;;;;;;22.00;71.80;;;;;;5005918;28;19917;-71
2021/09/16 01:11:45;;;;;;;;;;;22.00;71.80;;;;;;5020651;28;19917;-70
2021/09/16 01:14:11;;;;;;;;;;;22.10;71.90;;;;;;5006543;28;19924;-70
2021/09/16 01:16:36;;;;;;;;;;;22.10;71.80;;;;;;5021932;28;19915;-70
2021/09/16 01:19:02;;;;;;;;;;;22.10;71.90;;;;;;5023876;28;19913;-70
2021/09/16 01:21:27;;;;;;;;;;;22.00;71.80;;;;;;5023567;28;19913;-69
2021/09/16 01:23:53;;;;;;;;;;;22.10;72.10;;;;;;5023280;28;19917;-70
2021/09/16 01:26:18;;;;;;;;;;;22.10;71.90;;;;;;5007489;28;19917;-70
2021/09/16 01:28:44;;;;;;;;;;;22.00;72.00;;;;;;5038600;28;19913;-70
2021/09/16 01:31:09;;;;;;;;;;;22.00;71.90;;;;;;5039631;28;19921;-71
2021/09/16 01:33:35;;;;;;;;;;;22.00;72.00;;;;;;5040962;28;19920;-70
2021/09/16 01:36:01;;;;;;;;;;;22.00;71.80;;;;;;5025678;28;19948;-71
2021/09/16 01:38:26;;;;;;;;;;;22.00;72.10;;;;;;5025760;28;20004;-70
2021/09/16 01:40:52;;;;;;;;;;;22.00;72.40;;;;;;5008870;28;20277;-71
2021/09/16 01:43:17;;;;;;;;;;;22.00;72.00;;;;;;5024929;28;19971;-70
2021/09/16 01:45:43;;;;;;;;;;;22.10;72.30;;;;;;5007928;28;19979;-70
2021/09/16 01:48:08;;;;;;;;;;;22.10;71.90;;;;;;5009035;28;19919;-70
2021/09/16 01:50:34;;;;;;;;;;;22.10;71.80;;;;;;5024892;28;19913;-71
2021/09/16 01:52:59;;;;;;;;;;;22.10;71.70;;;;;;5008420;28;19927;-71
2021/09/16 01:55:25;;;;;;;;;;;22.10;71.60;;;;;;5024343;28;20290;-71
2021/09/16 01:57:50;;;;;;;;;;;22.10;71.80;;;;;;5057933;28;20209;-70
2021/09/16 02:00:16;;;;;;;;;;;22.00;71.90;;;;;;5057115;28;20023;-70
2021/09/16 02:02:42;;;;;;;;;;;22.00;71.90;;;;;;5057394;28;19909;-70
2021/09/16 02:05:07;;;;;;;;;;;22.00;72.00;;;;;;5042591;28;19923;-71
2021/09/16 02:07:33;;;;;;;;;;;22.00;72.60;;;;;;5009302;28;20001;-71
2021/09/16 02:09:58;;;;;;;;;;;22.00;72.30;;;;;;5009084;28;20371;-70
2021/09/16 02:12:24;;;;;;;;;;;22.00;72.10;;;;;;5026134;28;19921;-70
2021/09/16 02:14:49;;;;;;;;;;;22.00;72.10;;;;;;5025603;28;19913;-69
2021/09/16 02:17:14;;;;;;;;;;;22.00;72.30;;;;;;5009312;28;19921;-70
2021/09/16 02:19:40;;;;;;;;;;;22.00;72.20;;;;;;5009545;28;20332;-70
2021/09/16 02:22:05;;;;;;;;;;;22.00;72.30;;;;;;5025457;28;19925;-70
2021/09/16 02:24:31;;;;;;;;;;;22.00;72.30;;;;;;5009538;28;19967;-70
2021/09/16 02:26:56;;;;;;;;;;;22.10;72.40;;;;;;5008242;28;20334;-70
2021/09/16 02:29:22;;;;;;;;;;;22.00;72.70;;;;;;5008652;28;19913;-71
2021/09/16 02:31:47;;;;;;;;;;;22.00;72.60;;;;;;5024408;28;19921;-71
2021/09/16 02:34:13;;;;;;;;;;;22.10;72.50;;;;;;5024873;28;19949;-70
2021/09/16 02:36:38;;;;;;;;;;;22.00;72.20;;;;;;5008678;28;20370;-71
2021/09/16 02:39:04;;;;;;;;;;;22.00;72.80;;;;;;5024566;28;19913;-70
2021/09/16 02:41:29;;;;;;;;;;;22.00;72.60;;;;;;5006516;28;19926;-71
2021/09/16 02:43:54;;;;;;;;;;;22.00;72.60;;;;;;5024245;28;19913;-71
2021/09/16 02:46:20;;;;;;;;;;;22.00;73.00;;;;;;5024445;28;19928;-71
2021/09/16 02:48:45;;;;;;;;;;;22.00;73.10;;;;;;5024582;28;19920;-71
2021/09/16 02:51:11;;;;;;;;;;;21.90;72.90;;;;;;5000715;28;19992;-70
2021/09/16 02:53:36;;;;;;;;;;;21.90;73.70;;;;;;5041814;28;19920;-70
2021/09/16 02:56:02;;;;;;;;;;;21.90;73.60;;;;;;5023337;28;19919;-70
2021/09/16 02:58:27;;;;;;;;;;;21.90;73.70;;;;;;5004058;28;20246;-70
2021/09/16 03:00:53;;;;;;;;;;;21.90;73.50;;;;;;5011289;28;20384;-70
2021/09/16 03:03:18;;;;;;;;;;;21.90;73.30;;;;;;5026378;28;19917;-70
2021/09/16 03:05:46;;;;;;;;;;;21.90;74.00;;;;;;5008532;28;19913;-70
2021/09/16 03:08:11;;;;;;;;;;;21.80;73.30;;;;;;5018261;28;19913;-70
2021/09/16 03:10:36;;;;;;;;;;;21.90;73.10;;;;;;5049550;28;19913;-70
2021/09/16 03:13:02;;;;;;;;;;;21.90;73.30;;;;;;5039488;28;19975;-70
2021/09/16 03:15:27;;;;;;;;;;;21.90;73.20;;;;;;5007517;28;19964;-69
2021/09/16 03:17:53;;;;;;;;;;;21.90;72.90;;;;;;5049485;28;20406;-70
2021/09/16 03:20:18;;;;;;;;;;;21.90;73.10;;;;;;5035263;28;19916;-70
2021/09/16 03:22:44;;;;;;;;;;;21.90;73.20;;;;;;5036535;28;19935;-70
2021/09/16 03:25:10;;;;;;;;;;;21.90;72.80;;;;;;5067501;28;19927;-70
2021/09/16 03:27:35;;;;;;;;;;;21.90;72.70;;;;;;5035808;28;19924;-70
2021/09/16 03:30:00;;;;;;;;;;;21.90;73.10;;;;;;5067930;28;19986;-71
2021/09/16 03:32:26;;;;;;;;;;;21.90;73.00;;;;;;5021918;28;19913;-70
2021/09/16 03:34:51;;;;;;;;;;;21.90;72.80;;;;;;5030487;28;19913;-70
2021/09/16 03:37:17;;;;;;;;;;;21.90;72.80;;;;;;5040260;28;20434;-71
2021/09/16 03:39:42;;;;;;;;;;;21.90;72.70;;;;;;5012689;28;19948;-71
2021/09/16 03:42:08;;;;;;;;;;;21.90;72.70;;;;;;5039369;28;20280;-70
2021/09/16 03:44:36;;;;;;;;;;;22.00;72.60;;;;;;5011799;28;20110;-70
2021/09/16 03:47:01;;;;;;;;;;;21.90;72.50;;;;;;5030499;28;20019;-70
2021/09/16 03:49:27;;;;;;;;;;;22.00;72.80;;;;;;5023307;28;20009;-70
2021/09/16 03:51:52;;;;;;;;;;;22.00;73.00;;;;;;5018313;28;19956;-70
2021/09/16 03:54:18;;;;;;;;;;;22.00;72.90;;;;;;5026103;28;20278;-70
2021/09/16 03:56:43;;;;;;;;;;;22.00;73.20;;;;;;5027664;28;19908;-69
2021/09/16 03:59:09;;;;;;;;;;;21.90;73.20;;;;;;5056864;28;20433;-70
2021/09/16 04:01:34;;;;;;;;;;;21.90;73.50;;;;;;5040144;28;19921;-69
2021/09/16 04:03:59;;;;;;;;;;;21.90;72.80;;;;;;5030506;28;19928;-70
2021/09/16 04:06:25;;;;;;;;;;;21.90;72.70;;;;;;5015608;28;20353;-69
2021/09/16 04:08:50;;;;;;;;;;;21.90;72.60;;;;;;5037205;28;19909;-69
2021/09/16 04:11:16;;;;;;;;;;;22.00;72.60;;;;;;5015567;28;19920;-69
2021/09/16 04:13:41;;;;;;;;;;;22.00;72.50;;;;;;5013073;28;19921;-70
2021/09/16 04:16:07;;;;;;;;;;;21.90;72.50;;;;;;5040571;28;20211;-70
2021/09/16 04:18:32;;;;;;;;;;;21.90;72.50;;;;;;5018284;28;19920;-70
2021/09/16 04:20:58;;;;;;;;;;;21.90;72.50;;;;;;5049729;28;20334;-70
2021/09/16 04:23:23;;;;;;;;;;;21.90;72.50;;;;;;5066541;28;19924;-70
2021/09/16 04:25:48;;;;;;;;;;;22.00;72.50;;;;;;5037078;28;19913;-69
2021/09/16 04:28:14;;;;;;;;;;;22.00;72.40;;;;;;5027272;28;19967;-69
2021/09/16 04:30:39;;;;;;;;;;;22.00;72.40;;;;;;5024108;28;19935;-69
2021/09/16 04:33:05;;;;;;;;;;;22.00;72.60;;;;;;5005059;28;19928;-69
2021/09/16 04:35:30;;;;;;;;;;;22.00;72.80;;;;;;5011991;28;19916;-67
2021/09/16 04:37:56;;;;;;;;;;;22.00;72.80;;;;;;5034229;28;20519;-68
2021/09/16 04:40:21;;;;;;;;;;;21.90;72.60;;;;;;5024820;28;19913;-62
2021/09/16 04:42:47;;;;;;;;;;;21.90;72.60;;;;;;5024150;28;19956;-68
2021/09/16 04:45:12;;;;;;;;;;;22.00;72.80;;;;;;5025716;28;19913;-65
2021/09/16 04:47:40;;;;;;;;;;;21.90;72.70;;;;;;5025782;28;19963;-68
2021/09/16 04:50:07;;;;;;;;;;;21.90;72.80;;;;;;5023884;28;19949;-62
2021/09/16 04:52:32;;;;;;;;;;;22.00;72.80;;;;;;5027891;28;19909;-67
2021/09/16 04:54:58;;;;;;;;;;;21.90;72.60;;;;;;5035072;28;19916;-61
2021/09/16 04:57:23;;;;;;;;;;;21.90;72.80;;;;;;5034563;28;20405;-69
2021/09/16 04:59:49;;;;;;;;;;;21.90;73.00;;;;;;5022496;28;19925;-68
2021/09/16 05:02:14;;;;;;;;;;;21.90;73.00;;;;;;5032308;28;19917;-66
2021/09/16 05:04:40;;;;;;;;;;;21.90;73.10;;;;;;5023704;28;20280;-69
2021/09/16 05:07:05;;;;;;;;;;;21.90;72.80;;;;;;5025770;28;19920;-66
2021/09/16 05:09:31;;;;;;;;;;;22.00;72.90;;;;;;5025503;28;20007;-68
2021/09/16 05:11:56;;;;;;;;;;;21.90;72.80;;;;;;5071444;23;20383;-66
2021/09/16 05:14:22;;;;;;;;;;;21.90;72.60;;;;;;4995852;28;19980;-66
2021/09/16 05:16:47;;;;;;;;;;;22.00;72.60;;;;;;5001994;28;20190;-67
2021/09/16 05:19:13;;;;;;;;;;;22.00;72.50;;;;;;4990806;28;20362;-67
2021/09/16 05:21:38;;;;;;;;;;;22.00;72.40;;;;;;4988059;28;20179;-67
2021/09/16 05:24:04;;;;;;;;;;;22.00;72.30;;;;;;4991796;28;20204;-67
2021/09/16 05:26:29;;;;;;;;;;;22.00;72.70;;;;;;4984165;28;20288;-67
2021/09/16 05:28:55;;;;;;;;;;;22.00;72.80;;;;;;4966269;28;20122;-67
2021/09/16 05:31:20;;;;;;;;;;;22.00;73.00;;;;;;4999116;28;19914;-67
2021/09/16 05:33:45;;;;;;;;;;;22.00;73.00;;;;;;4993087;28;19918;-67
2021/09/16 05:36:11;;;;;;;;;;;21.90;73.00;;;;;;4990082;28;19918;-69
2021/09/16 05:38:36;;;;;;;;;;;21.90;72.80;;;;;;4998047;28;19918;-67
2021/09/16 05:41:02;;;;;;;;;;;22.00;72.90;;;;;;4997670;28;19945;-66
2021/09/16 05:43:27;;;;;;;;;;;21.90;72.60;;;;;;5005573;28;20171;-67
2021/09/16 05:45:53;;;;;;;;;;;22.00;72.70;;;;;;5002398;28;20413;-67
2021/09/16 05:48:20;;;;;;;;;;;21.90;72.40;;;;;;5007828;28;19920;-67
2021/09/16 05:50:46;;;;;;;;;;;21.90;72.20;;;;;;4992144;28;19921;-68
2021/09/16 05:53:11;;;;;;;;;;;21.90;72.30;;;;;;4994965;28;19917;-67
2021/09/16 05:55:39;;;;;;;;;;;21.90;71.00;;;;;;5003113;28;19925;-66
2021/09/16 05:58:05;;;;;;;;;;;21.90;71.90;;;;;;4993598;28;19918;-67
2021/09/16 06:00:31;;;;;;;;;;;21.90;71.70;;;;;;4985113;28;19917;-67
2021/09/16 06:02:56;;;;;;;;;;;21.90;70.90;;;;;;4987662;28;19964;-67
2021/09/16 06:05:21;;;;;;;;;;;21.90;71.30;;;;;;4998831;28;20582;-67
2021/09/16 06:07:47;;;;;;;;;;;21.90;71.40;;;;;;4987976;28;19917;-67
2021/09/16 06:10:12;;;;;;;;;;;21.90;70.40;;;;;;4995826;28;20233;-67
2021/09/16 06:12:38;;;;;;;;;;;21.90;71.10;;;;;;4990748;28;20028;-67
2021/09/16 06:15:03;;;;;;;;;;;21.90;70.50;;;;;;4996159;28;19925;-67
2021/09/16 06:17:29;;;;;;;;;;;21.90;71.10;;;;;;4996670;28;20582;-67
2021/09/16 06:19:54;;;;;;;;;;;21.90;70.70;;;;;;5000928;28;19913;-67
2021/09/16 06:22:20;;;;;;;;;;;21.90;71.10;;;;;;4995126;28;20018;-68
2021/09/16 06:24:45;;;;;;;;;;;21.90;71.20;;;;;;5003795;28;20005;-67
2021/09/16 06:27:11;;;;;;;;;;;21.90;71.80;;;;;;4987303;28;20745;-67
2021/09/16 06:29:36;;;;;;;;;;;21.90;71.30;;;;;;4993542;28;19917;-67
2021/09/16 06:32:02;;;;;;;;;;;21.90;71.50;;;;;;5001102;28;19919;-68
2021/09/16 06:34:27;;;;;;;;;;;21.90;71.30;;;;;;4995374;28;20395;-67
2021/09/16 06:36:53;;;;;;;;;;;21.90;71.30;;;;;;4995346;28;19918;-67
2021/09/16 06:39:18;;;;;;;;;;;21.90;71.30;;;;;;5004775;28;19952;-67
2021/09/16 06:41:44;;;;;;;;;;;21.90;71.30;;;;;;5006198;28;19914;-67
2021/09/16 06:44:09;;;;;;;;;;;21.90;71.30;;;;;;4991884;28;19910;-67
2021/09/16 06:46:34;;;;;;;;;;;21.90;71.20;;;;;;5000575;28;19921;-67
2021/09/16 06:49:00;;;;;;;;;;;21.90;71.20;;;;;;4993812;28;19913;-67
2021/09/16 06:51:26;;;;;;;;;;;21.90;71.20;;;;;;4992718;28;20402;-68
2021/09/16 06:53:51;;;;;;;;;;;21.90;71.10;;;;;;4980781;28;19913;-68
2021/09/16 06:56:17;;;;;;;;;;;21.90;71.10;;;;;;4995732;28;19917;-68
2021/09/16 06:58:42;;;;;;;;;;;21.90;71.20;;;;;;4991413;28;19914;-66
2021/09/16 07:01:08;;;;;;;;;;;21.90;71.50;;;;;;4988896;28;20573;-67
2021/09/16 07:03:33;;;;;;;;;;;21.90;71.90;;;;;;4978711;28;20443;-68
2021/09/16 07:05:59;;;;;;;;;;;21.90;71.90;;;;;;5003978;28;19921;-68
2021/09/16 07:08:24;;;;;;;;;;;21.90;72.00;;;;;;4994928;28;19949;-67
2021/09/16 07:10:50;;;;;;;;;;;21.90;72.00;;;;;;4993343;28;20542;-69
2021/09/16 07:13:15;;;;;;;;;;;21.90;72.10;;;;;;4975396;28;19934;-68
2021/09/16 07:15:41;;;;;;;;;;;21.90;71.90;;;;;;5000001;28;19921;-68
2021/09/16 07:18:06;;;;;;;;;;;21.90;71.90;;;;;;4985395;28;20284;-69
2021/09/16 07:20:32;;;;;;;;;;;21.90;71.80;;;;;;4985389;28;20004;-69
2021/09/16 07:22:57;;;;;;;;;;;21.90;71.20;;;;;;4990545;28;19917;-68
2021/09/16 07:25:22;;;;;;;;;;;21.90;71.80;;;;;;4995033;28;19918;-67
2021/09/16 07:27:48;;;;;;;;;;;21.90;71.50;;;;;;4997907;28;19980;-67
2021/09/16 07:30:13;;;;;;;;;;;21.90;71.80;;;;;;4992519;28;19913;-67
2021/09/16 07:32:39;;;;;;;;;;;21.90;71.90;;;;;;4996087;28;20020;-68
2021/09/16 07:35:04;;;;;;;;;;;21.90;71.90;;;;;;4988397;28;20000;-67
2021/09/16 07:37:30;;;;;;;;;;;21.90;71.90;;;;;;4992075;28;20044;-66
2021/09/16 07:39:55;;;;;;;;;;;21.90;71.90;;;;;;4984630;28;19922;-67
2021/09/16 07:42:21;;;;;;;;;;;21.90;71.40;;;;;;4993692;28;19950;-67
2021/09/16 07:44:46;;;;;;;;;;;21.90;71.70;;;;;;4987967;28;19913;-67
2021/09/16 07:47:12;;;;;;;;;;;21.90;72.00;;;;;;4994690;28;19917;-67
2021/09/16 07:49:37;;;;;;;;;;;21.90;71.90;;;;;;4995195;28;19914;-67
2021/09/16 07:52:03;;;;;;;;;;;21.90;71.50;;;;;;4988721;28;20382;-67
2021/09/16 07:54:28;;;;;;;;;;;21.90;71.70;;;;;;4999562;28;19917;-68
2021/09/16 07:56:54;;;;;;;;;;;21.90;71.30;;;;;;4998730;28;19918;-67
2021/09/16 07:59:19;;;;;;;;;;;21.90;71.70;;;;;;4986514;28;19914;-66
2021/09/16 08:01:44;;;;;;;;;;;21.90;70.40;;;;;;4989775;28;19921;-67
2021/09/16 08:04:10;;;;;;;;;;;21.90;71.00;;;;;;4992655;28;19914;-67
2021/09/16 08:06:35;;;;;;;;;;;21.80;71.00;;;;;;4994503;28;20380;-67
2021/09/16 08:09:01;;;;;;;;;;;21.90;71.00;;;;;;5003327;28;19948;-67
2021/09/16 08:11:26;;;;;;;;;;;21.90;71.20;;;;;;4995607;28;19960;-67
2021/09/16 08:13:52;;;;;;;;;;;21.90;71.00;;;;;;4990118;28;19945;-68
2021/09/16 08:16:18;;;;;;;;;;;21.90;70.40;;;;;;4989938;28;19918;-67
2021/09/16 08:18:43;;;;;;;;;;;21.90;71.30;;;;;;4991536;28;20504;-67
2021/09/16 08:21:09;;;;;;;;;;;21.90;71.20;;;;;;4989570;28;19939;-67
2021/09/16 08:23:34;;;;;;;;;;;21.90;70.80;;;;;;4990763;28;19916;-67
2021/09/16 08:26:00;;;;;;;;;;;21.90;70.90;;;;;;4994150;28;19965;-67
2021/09/16 08:28:25;;;;;;;;;;;21.90;70.40;;;;;;5002687;28;19914;-67
2021/09/16 08:30:51;;;;;;;;;;;21.80;70.30;;;;;;4978661;28;20048;-67
2021/09/16 08:33:16;;;;;;;;;;;21.80;71.30;;;;;;4992733;28;19917;-67
2021/09/16 08:35:42;;;;;;;;;;;21.90;71.30;;;;;;4983904;28;19914;-67
2021/09/16 08:38:07;;;;;;;;;;;21.90;72.00;;;;;;4996276;28;19925;-66
2021/09/16 08:40:33;;;;;;;;;;;21.90;70.60;;;;;;4989979;28;19917;-67
2021/09/16 08:42:58;;;;;;;;;;;21.90;71.30;;;;;;4982666;28;19996;-68
2021/09/16 08:45:24;;;;;;;;;;;21.90;70.60;;;;;;4996555;28;19914;-67
2021/09/16 08:47:50;;;;;;;;;;;21.90;71.00;;;;;;4982458;28;21162;-67
2021/09/16 08:50:16;;;;;;;;;;;21.90;71.50;;;;;;4984773;28;19917;-67
2021/09/16 08:52:42;;;;;;;;;;;21.90;71.70;;;;;;4989676;28;20012;-67
2021/09/16 08:55:08;;;;;;;;;;;21.70;70.60;;;;;;4995001;28;19968;-68
2021/09/16 08:57:34;;;;;;;;;;;21.70;71.20;;;;;;4982639;28;19918;-68
2021/09/16 08:59:59;;;;;;;;;;;21.80;71.70;;;;;;4991464;28;19953;-68
2021/09/16 09:02:25;;;;;;;;;;;21.80;71.80;;;;;;4998701;28;19914;-67
2021/09/16 09:04:50;;;;;;;;;;;21.80;71.70;;;;;;4994420;28;19918;-67
2021/09/16 09:07:19;;;;;;;;;;;21.80;71.80;;;;;;4998042;28;19921;-68
2021/09/16 09:09:45;;;;;;;;;;;21.80;71.70;;;;;;4982419;28;19925;-68
2021/09/16 09:12:13;;;;;;;;;;;21.90;71.50;;;;;;4983804;28;19914;-67
2021/09/16 09:14:43;;;;;;;;;;;21.90;71.70;;;;;;4977262;28;20320;-67
2021/09/16 09:17:17;;;;;;;;;;;21.90;71.90;;;;;;4989667;28;19967;-66
2021/09/16 09:19:43;;;;;;;;;;;21.90;71.70;;;;;;4991545;28;20003;-68
2021/09/16 09:22:08;;;;;;;;;;;21.90;71.70;;;;;;4988560;28;19960;-67
2021/09/16 09:24:35;;;;;;;;;;;21.90;71.80;;;;;;4991880;28;20223;-67
2021/09/16 09:27:00;;;;;;;;;;;21.90;71.70;;;;;;4984854;28;19918;-67
2021/09/16 09:29:28;;;;;;;;;;;21.90;71.80;;;;;;4989875;28;21218;-67
2021/09/16 09:31:53;;;;;;;;;;;21.90;71.70;;;;;;5000092;28;20368;-68
2021/09/16 09:34:23;;;;;;;;;;;21.90;71.50;;;;;;5001689;28;19922;-67
2021/09/16 09:36:49;;;;;;;;;;;21.90;71.70;;;;;;5002837;28;20376;-66
2021/09/16 09:39:14;;;;;;;;;;;21.90;71.50;;;;;;4989923;28;20463;-67
2021/09/16 09:41:40;;;;;;;;;;;21.90;71.70;;;;;;5001689;28;19913;-67
2021/09/16 09:44:09;;;;;;;;;;;21.90;71.50;;;;;;4990355;28;20319;-67
2021/09/16 09:46:38;;;;;;;;;;;21.90;71.60;;;;;;4985672;28;19921;-67
2021/09/16 09:49:04;;;;;;;;;;;21.90;70.90;;;;;;5003100;28;19913;-68
2021/09/16 09:51:40;;;;;;;;;;;21.90;71.20;;;;;;4997922;28;20541;-67
2021/09/16 09:54:24;;;;;;;;;;;21.90;71.00;;;;;;4998548;28;19910;-65
2021/09/16 09:56:57;;;;;;;;;;;21.90;71.30;;;;;;5006485;28;19925;-66
2021/09/16 09:59:22;;;;;;;;;;;21.90;71.40;;;;;;5002502;28;19914;-67
2021/09/16 10:01:47;;;;;;;;;;;21.90;71.60;;;;;;4995664;28;19943;-66
2021/09/16 10:04:23;;;;;;;;;;;21.90;71.50;;;;;;4994690;28;19913;-65
2021/09/16 10:06:48;;;;;;;;;;;21.90;71.30;;;;;;4989674;28;20585;-67
2021/09/16 10:09:14;;;;;;;;;;;21.90;71.50;;;;;;5006738;28;19979;-66
2021/09/16 10:11:44;;;;;;;;;;;21.90;71.50;;;;;;4995279;28;19914;-65
2021/09/16 10:14:09;;;;;;;;;;;21.90;71.40;;;;;;4991358;28;19917;-65
2021/09/16 10:16:35;;;;;;;;;;;21.90;71.40;;;;;;4995656;28;19924;-66
2021/09/16 10:19:00;;;;;;;;;;;21.80;71.30;;;;;;4986852;28;19922;-65
2021/09/16 10:21:25;;;;;;;;;;;21.90;71.40;;;;;;5001262;28;19918;-67
2021/09/16 10:23:52;;;;;;;;;;;21.80;71.30;;;;;;4993180;28;19951;-65
2021/09/16 10:26:30;;;;;;;;;;;21.90;71.50;;;;;;5005098;28;19928;-66
2021/09/16 10:28:56;;;;;;;;;;;21.90;71.50;;;;;;4996037;28;20308;-67
2021/09/16 10:31:21;;;;;;;;;;;21.90;71.40;;;;;;4997596;28;19921;-67
2021/09/16 10:33:47;;;;;;;;;;;21.90;71.60;;;;;;4996254;28;20281;-66
2021/09/16 10:36:13;;;;;;;;;;;21.80;71.50;;;;;;5001833;28;20308;-67
2021/09/16 10:38:38;;;;;;;;;;;21.90;71.60;;;;;;4995224;28;19918;-65
2021/09/16 10:41:22;;;;;;;;;;;21.90;71.60;;;;;;5002254;28;20468;-66
2021/09/16 10:43:57;;;;;;;;;;;21.90;71.70;;;;;;4993293;28;20330;-66
2021/09/16 10:46:25;;;;;;;;;;;21.90;71.50;;;;;;4996987;28;19932;-65
2021/09/16 10:48:51;;;;;;;;;;;21.90;71.60;;;;;;4996651;28;20367;-65
2021/09/16 10:51:34;;;;;;;;;;;21.80;71.50;;;;;;4995634;28;19929;-65
2021/09/16 10:53:59;;;;;;;;;;;21.80;71.60;;;;;;4963505;28;20004;-64
2021/09/16 10:56:30;;;;;;;;;;;21.80;71.00;;;;;;4996751;28;20669;-65
2021/09/16 10:58:56;;;;;;;;;;;21.80;71.50;;;;;;4997817;28;19971;-66
2021/09/16 11:01:40;;;;;;;;;;;21.90;71.40;;;;;;4990443;28;19914;-65
2021/09/16 11:04:07;;;;;;;;;;;21.80;71.30;;;;;;4986880;28;19924;-64
2021/09/16 11:06:42;;;;;;;;;;;21.90;71.10;;;;;;4997069;28;20056;-66
2021/09/16 11:09:08;;;;;;;;;;;21.90;71.10;;;;;;4982724;28;19916;-64
2021/09/16 11:11:48;;;;;;;;;;;21.80;71.10;;;;;;5001105;28;19909;-64
2021/09/16 11:14:32;;;;;;;;;;;21.80;71.10;;;;;;4985148;23;20362;-74
2021/09/16 11:16:58;;;;;;;;;;;21.80;71.00;;;;;;5033474;28;19992;-74
2021/09/16 11:19:23;;;;;;;;;;;21.80;71.00;;;;;;5034074;28;20000;-74
2021/09/16 11:22:02;;;;;;;;;;;21.90;71.10;;;;;;5019959;28;19956;-74
2021/09/16 11:24:34;;;;;;;;;;;21.80;71.00;;;;;;5002528;28;19999;-74
2021/09/16 11:27:00;;;;;;;;;;;21.90;71.10;;;;;;5020961;28;20297;-74
2021/09/16 11:29:25;;;;;;;;;;;21.80;71.10;;;;;;5031514;28;19921;-74
2021/09/16 11:32:01;;;;;;;;;;;21.80;70.60;;;;;;5035590;28;19914;-74
2021/09/16 11:34:26;;;;;;;;;;;21.80;71.10;;;;;;5037622;28;19935;-73
2021/09/16 11:37:05;;;;;;;;;;;21.80;70.80;;;;;;5031811;28;19935;-74
2021/09/16 11:39:31;;;;;;;;;;;21.80;70.80;;;;;;5022017;28;19913;-73
2021/09/16 11:42:15;;;;;;;;;;;21.80;70.90;;;;;;5043566;28;19971;-74
2021/09/16 11:44:59;;;;;;;;;;;21.80;70.70;;;;;;5038681;28;19948;-74
2021/09/16 11:47:25;;;;;;;;;;;21.80;70.80;;;;;;5035098;28;20007;-74
2021/09/16 11:49:50;;;;;;;;;;;21.80;70.80;;;;;;5021662;28;19995;-73
2021/09/16 11:52:19;;;;;;;;;;;21.80;70.70;;;;;;5035568;28;19924;-74
2021/09/16 11:55:03;;;;;;;;;;;21.80;71.00;;;;;;5024299;28;19912;-74
2021/09/16 11:57:28;;;;;;;;;;;21.80;70.70;;;;;;5029767;28;19988;-73
2021/09/16 11:59:54;;;;;;;;;;;21.80;70.60;;;;;;5025637;28;19935;-74
2021/09/16 12:02:19;;;;;;;;;;;21.80;70.60;;;;;;5009899;28;19913;-74
2021/09/16 12:04:46;;;;;;;;;;;21.80;70.80;;;;;;5025852;28;19927;-74
2021/09/16 12:07:15;;;;;;;;;;;21.80;70.90;;;;;;5021783;28;20012;-74
2021/09/16 12:09:40;;;;;;;;;;;21.80;71.00;;;;;;5006015;28;19946;-74
2021/09/16 12:12:06;;;;;;;;;;;21.80;71.10;;;;;;5023006;28;19913;-74
2021/09/16 12:14:31;;;;;;;;;;;21.80;71.20;;;;;;5022184;28;20294;-73
2021/09/16 12:17:03;;;;;;;;;;;21.80;71.10;;;;;;5023994;28;19917;-74
2021/09/16 12:19:28;;;;;;;;;;;21.80;71.20;;;;;;5022380;28;20004;-74
2021/09/16 12:21:57;;;;;;;;;;;21.80;71.10;;;;;;5041211;28;20015;-73
2021/09/16 12:24:26;;;;;;;;;;;21.80;70.90;;;;;;5026395;28;20338;-73
2021/09/16 12:26:52;;;;;;;;;;;21.80;70.80;;;;;;5023131;28;20337;-73
2021/09/16 12:29:28;;;;;;;;;;;21.80;71.00;;;;;;5027810;28;20012;-73
2021/09/16 12:31:59;;;;;;;;;;;21.80;71.00;;;;;;5041555;28;20039;-74
2021/09/16 12:34:31;;;;;;;;;;;21.80;70.90;;;;;;5025596;28;19918;-74
2021/09/16 12:36:58;;;;;;;;;;;21.80;71.10;;;;;;5030574;28;19967;-74
2021/09/16 12:39:24;;;;;;;;;;;21.80;71.00;;;;;;5030353;28;19913;-74
2021/09/16 12:41:49;;;;;;;;;;;21.80;70.80;;;;;;5025369;28;20370;-73
2021/09/16 12:44:19;;;;;;;;;;;21.80;70.90;;;;;;5036743;28;19917;-73
2021/09/16 12:46:51;;;;;;;;;;;21.80;70.80;;;;;;5022334;28;20008;-73
2021/09/16 12:49:23;;;;;;;;;;;21.80;70.80;;;;;;5025559;28;20704;-73
2021/09/16 12:51:55;;;;;;;;;;;21.80;70.80;;;;;;5018482;28;19926;-73
2021/09/16 12:54:20;;;;;;;;;;;21.80;70.90;;;;;;5038310;28;19917;-73
2021/09/16 12:56:46;;;;;;;;;;;21.80;70.70;;;;;;5006822;28;19914;-73
2021/09/16 12:59:18;;;;;;;;;;;21.80;70.80;;;;;;5030310;28;19917;-73
2021/09/16 13:01:46;;;;;;;;;;;21.80;70.80;;;;;;5021967;28;19917;-74
2021/09/16 13:04:11;;;;;;;;;;;21.80;70.80;;;;;;5025972;28;19920;-73
2021/09/16 13:06:36;;;;;;;;;;;21.80;70.60;;;;;;5025187;28;19917;-73
2021/09/16 13:09:02;;;;;;;;;;;21.80;70.60;;;;;;5025291;28;19919;-74
2021/09/16 13:11:28;;;;;;;;;;;21.80;70.40;;;;;;5039290;28;20468;-73
2021/09/16 13:14:06;;;;;;;;;;;21.90;70.00;;;;;;5030410;28;19917;-74
2021/09/16 13:16:32;;;;;;;;;;;21.80;69.50;;;;;;5014005;28;20319;-73
2021/09/16 13:18:58;;;;;;;;;;;21.80;69.50;;;;;;5030613;28;19921;-74
2021/09/16 13:21:23;;;;;;;;;;;21.80;70.30;;;;;;5035765;28;19996;-74
2021/09/16 13:23:49;;;;;;;;;;;21.80;70.30;;;;;;5042843;28;20288;-74
2021/09/16 13:26:14;;;;;;;;;;;21.80;69.90;;;;;;5011932;28;19917;-74
2021/09/16 13:28:40;;;;;;;;;;;21.90;70.50;;;;;;5041320;28;19919;-74
2021/09/16 13:31:05;;;;;;;;;;;21.70;69.90;;;;;;5045710;28;20319;-74
2021/09/16 13:33:31;;;;;;;;;;;21.80;70.00;;;;;;5020378;28;20138;-74
2021/09/16 13:35:56;;;;;;;;;;;21.80;70.40;;;;;;5016985;28;19919;-74
2021/09/16 13:38:22;;;;;;;;;;;21.70;70.50;;;;;;5039310;28;19920;-74
2021/09/16 13:40:47;;;;;;;;;;;21.80;70.30;;;;;;5027214;28;19917;-75
2021/09/16 13:43:12;;;;;;;;;;;21.80;70.40;;;;;;5035038;28;19921;-75
2021/09/16 13:45:38;;;;;;;;;;;21.80;70.60;;;;;;5018703;28;19920;-75
2021/09/16 13:48:03;;;;;;;;;;;21.80;70.60;;;;;;5016560;28;19926;-74
2021/09/16 13:50:29;;;;;;;;;;;21.80;70.60;;;;;;5006085;28;19913;-75
2021/09/16 13:52:54;;;;;;;;;;;21.80;70.40;;;;;;5007268;28;19966;-75
2021/09/16 13:55:20;;;;;;;;;;;21.80;70.60;;;;;;5040066;28;19970;-74
2021/09/16 13:57:45;;;;;;;;;;;21.80;70.70;;;;;;5035061;28;19913;-74
2021/09/16 14:00:11;;;;;;;;;;;21.80;70.80;;;;;;5014304;28;20490;-74
2021/09/16 14:02:36;;;;;;;;;;;21.80;70.80;;;;;;5043390;28;19928;-73
2021/09/16 14:05:02;;;;;;;;;;;21.70;70.90;;;;;;4988296;28;19913;-74
2021/09/16 14:07:28;;;;;;;;;;;21.70;70.80;;;;;;5035169;28;19921;-74
2021/09/16 14:09:53;;;;;;;;;;;21.80;70.90;;;;;;5001176;28;19917;-75
2021/09/16 14:12:19;;;;;;;;;;;21.70;70.70;;;;;;5042848;28;19913;-75